sensor_id;sensor_type;location;lat;lon;timestamp;P1;durP1;ratioP1;P2;durP2;ratioP2
27365;SDS011;14837;57.148;-2.144;2022-11-23T00:00:41;9.75;;;2.85;;
27365;SDS011;14837;57.148;-2.144;2022-11-23T00:03:11;4.72;;;2.70;;
27365;SDS011;14837;57.148;-2.144;2022-11-23T00:05:39;5.80;;;2.35;;
27365;SDS011;14837;57.148;-2.144;2022-11-23T00:08:05;3.00;;;2.35;;
27365;SDS011;14837;57.148;-2.144;2022-11-23T00:10:32;6.00;;;2.50;;
27365;SDS011;14837;57.148;-2.144;2022-11-23T00:12:58;4.47;;;2.33;;
27365;SDS011;14837;57.148;-2.144;2022-11-23T00:15:25;9.10;;;3.63;;
27365;SDS011;14837;57.148;-2.144;2022-11-23T00:17:51;3.15;;;2.40;;
27365;SDS011;14837;57.148;-2.144;2022-11-23T00:20:18;4.03;;;2.75;;
27365;SDS011;14837;57.148;-2.144;2022-11-23T00:22:44;6.28;;;2.58;;
27365;SDS011;14837;57.148;-2.144;2022-11-23T00:25:11;4.65;;;2.22;;
27365;SDS011;14837;57.148;-2.144;2022-11-23T00:27:37;4.88;;;2.13;;
27365;SDS011;14837;57.148;-2.144;2022-11-23T00:30:04;5.22;;;2.15;;
27365;SDS011;14837;57.148;-2.144;2022-11-23T00:32:31;4.20;;;2.08;;
27365;SDS011;14837;57.148;-2.144;2022-11-23T00:34:57;2.60;;;2.20;;
27365;SDS011;14837;57.148;-2.144;2022-11-23T00:37:24;4.32;;;2.13;;
27365;SDS011;14837;57.148;-2.144;2022-11-23T00:39:50;3.55;;;2.08;;
27365;SDS011;14837;57.148;-2.144;2022-11-23T00:42:17;5.60;;;2.47;;
27365;SDS011;14837;57.148;-2.144;2022-11-23T00:44:43;3.03;;;2.15;;
27365;SDS011;14837;57.148;-2.144;2022-11-23T00:47:10;5.28;;;2.47;;
27365;SDS011;14837;57.148;-2.144;2022-11-23T00:49:36;5.50;;;2.22;;
27365;SDS011;14837;57.148;-2.144;2022-11-23T00:52:03;3.25;;;2.35;;
27365;SDS011;14837;57.148;-2.144;2022-11-23T00:54:29;8.30;;;2.97;;
27365;SDS011;14837;57.148;-2.144;2022-11-23T00:56:56;5.22;;;2.63;;
27365;SDS011;14837;57.148;-2.144;2022-11-23T00:59:22;2.58;;;1.83;;
27365;SDS011;14837;57.148;-2.144;2022-11-23T01:01:49;4.03;;;2.50;;
27365;SDS011;14837;57.148;-2.144;2022-11-23T01:04:16;4.88;;;1.98;;
27365;SDS011;14837;57.148;-2.144;2022-11-23T01:06:42;2.40;;;1.73;;
27365;SDS011;14837;57.148;-2.144;2022-11-23T01:09:13;3.35;;;2.38;;
27365;SDS011;14837;57.148;-2.144;2022-11-23T01:11:40;3.85;;;2.42;;
27365;SDS011;14837;57.148;-2.144;2022-11-23T01:14:06;7.65;;;2.33;;
27365;SDS011;14837;57.148;-2.144;2022-11-23T01:16:34;4.85;;;2.45;;
27365;SDS011;14837;57.148;-2.144;2022-11-23T01:19:02;7.43;;;2.67;;
27365;SDS011;14837;57.148;-2.144;2022-11-23T01:21:29;6.00;;;3.10;;
27365;SDS011;14837;57.148;-2.144;2022-11-23T01:23:56;3.25;;;2.20;;
27365;SDS011;14837;57.148;-2.144;2022-11-23T01:26:23;5.97;;;2.83;;
27365;SDS011;14837;57.148;-2.144;2022-11-23T01:28:49;2.83;;;2.17;;
27365;SDS011;14837;57.148;-2.144;2022-11-23T01:31:17;6.00;;;1.55;;
27365;SDS011;14837;57.148;-2.144;2022-11-23T01:33:44;2.97;;;2.00;;
27365;SDS011;14837;57.148;-2.144;2022-11-23T01:36:11;6.88;;;2.13;;
27365;SDS011;14837;57.148;-2.144;2022-11-23T01:38:41;3.55;;;1.70;;
27365;SDS011;14837;57.148;-2.144;2022-11-23T01:41:09;3.35;;;1.70;;
27365;SDS011;14837;57.148;-2.144;2022-11-23T01:43:36;4.57;;;1.92;;
27365;SDS011;14837;57.148;-2.144;2022-11-23T01:46:03;3.38;;;1.83;;
27365;SDS011;14837;57.148;-2.144;2022-11-23T01:48:35;3.80;;;1.95;;
27365;SDS011;14837;57.148;-2.144;2022-11-23T01:51:04;3.42;;;1.80;;
27365;SDS011;14837;57.148;-2.144;2022-11-23T01:53:30;3.97;;;1.90;;
27365;SDS011;14837;57.148;-2.144;2022-11-23T01:55:58;2.85;;;1.55;;
27365;SDS011;14837;57.148;-2.144;2022-11-23T01:58:25;5.45;;;2.67;;
27365;SDS011;14837;57.148;-2.144;2022-11-23T02:00:53;2.85;;;1.40;;
27365;SDS011;14837;57.148;-2.144;2022-11-23T02:03:19;2.83;;;1.73;;
27365;SDS011;14837;57.148;-2.144;2022-11-23T02:05:47;4.68;;;2.33;;
27365;SDS011;14837;57.148;-2.144;2022-11-23T02:08:15;3.95;;;2.00;;
27365;SDS011;14837;57.148;-2.144;2022-11-23T02:10:42;3.95;;;2.25;;
27365;SDS011;14837;57.148;-2.144;2022-11-23T02:13:09;7.30;;;3.05;;
27365;SDS011;14837;57.148;-2.144;2022-11-23T02:15:36;3.55;;;2.15;;
27365;SDS011;14837;57.148;-2.144;2022-11-23T02:18:03;4.15;;;2.50;;
27365;SDS011;14837;57.148;-2.144;2022-11-23T02:20:31;5.75;;;2.55;;
27365;SDS011;14837;57.148;-2.144;2022-11-23T02:27:56;3.67;;;2.05;;
27365;SDS011;14837;57.148;-2.144;2022-11-23T02:30:23;3.00;;;1.95;;
27365;SDS011;14837;57.148;-2.144;2022-11-23T02:32:50;3.50;;;2.47;;
27365;SDS011;14837;57.148;-2.144;2022-11-23T02:35:17;2.47;;;2.28;;
27365;SDS011;14837;57.148;-2.144;2022-11-23T02:37:43;2.47;;;1.67;;
27365;SDS011;14837;57.148;-2.144;2022-11-23T02:40:13;3.90;;;2.58;;
27365;SDS011;14837;57.148;-2.144;2022-11-23T02:42:42;4.85;;;2.45;;
27365;SDS011;14837;57.148;-2.144;2022-11-23T02:45:24;4.25;;;2.95;;
27365;SDS011;14837;57.148;-2.144;2022-11-23T02:47:53;4.88;;;2.58;;
27365;SDS011;14837;57.148;-2.144;2022-11-23T02:50:20;4.60;;;2.83;;
27365;SDS011;14837;57.148;-2.144;2022-11-23T02:52:46;8.23;;;3.53;;
27365;SDS011;14837;57.148;-2.144;2022-11-23T02:55:13;4.45;;;3.28;;
27365;SDS011;14837;57.148;-2.144;2022-11-23T02:57:39;3.90;;;2.72;;
27365;SDS011;14837;57.148;-2.144;2022-11-23T03:00:06;5.90;;;3.17;;
27365;SDS011;14837;57.148;-2.144;2022-11-23T03:02:33;5.78;;;3.35;;
27365;SDS011;14837;57.148;-2.144;2022-11-23T03:04:59;5.30;;;3.00;;
27365;SDS011;14837;57.148;-2.144;2022-11-23T03:07:26;6.60;;;2.60;;
27365;SDS011;14837;57.148;-2.144;2022-11-23T03:09:52;5.25;;;2.92;;
27365;SDS011;14837;57.148;-2.144;2022-11-23T03:12:19;4.60;;;2.97;;
27365;SDS011;14837;57.148;-2.144;2022-11-23T03:14:45;7.72;;;3.25;;
27365;SDS011;14837;57.148;-2.144;2022-11-23T03:17:12;16.27;;;3.92;;
27365;SDS011;14837;57.148;-2.144;2022-11-23T03:19:39;6.15;;;3.88;;
27365;SDS011;14837;57.148;-2.144;2022-11-23T03:22:05;10.85;;;4.03;;
27365;SDS011;14837;57.148;-2.144;2022-11-23T03:24:32;7.50;;;5.10;;
27365;SDS011;14837;57.148;-2.144;2022-11-23T03:26:59;5.00;;;4.03;;
27365;SDS011;14837;57.148;-2.144;2022-11-23T03:29:26;5.75;;;3.45;;
27365;SDS011;14837;57.148;-2.144;2022-11-23T03:31:53;5.85;;;4.70;;
27365;SDS011;14837;57.148;-2.144;2022-11-23T03:34:19;7.18;;;5.35;;
27365;SDS011;14837;57.148;-2.144;2022-11-23T03:36:46;4.85;;;4.20;;
27365;SDS011;14837;57.148;-2.144;2022-11-23T03:39:12;8.57;;;5.35;;
27365;SDS011;14837;57.148;-2.144;2022-11-23T03:41:39;11.73;;;5.53;;
27365;SDS011;14837;57.148;-2.144;2022-11-23T03:44:06;8.60;;;5.63;;
27365;SDS011;14837;57.148;-2.144;2022-11-23T03:46:32;7.90;;;5.95;;
27365;SDS011;14837;57.148;-2.144;2022-11-23T03:48:58;9.02;;;6.25;;
27365;SDS011;14837;57.148;-2.144;2022-11-23T03:51:25;8.05;;;6.10;;
27365;SDS011;14837;57.148;-2.144;2022-11-23T03:53:51;8.38;;;4.97;;
27365;SDS011;14837;57.148;-2.144;2022-11-23T03:56:18;9.07;;;4.82;;
27365;SDS011;14837;57.148;-2.144;2022-11-23T03:58:45;12.70;;;6.50;;
27365;SDS011;14837;57.148;-2.144;2022-11-23T04:01:11;8.40;;;5.85;;
27365;SDS011;14837;57.148;-2.144;2022-11-23T04:03:38;7.78;;;5.47;;
27365;SDS011;14837;57.148;-2.144;2022-11-23T04:06:05;8.93;;;5.85;;
27365;SDS011;14837;57.148;-2.144;2022-11-23T04:08:31;11.10;;;6.00;;
27365;SDS011;14837;57.148;-2.144;2022-11-23T04:10:58;10.27;;;6.20;;
27365;SDS011;14837;57.148;-2.144;2022-11-23T04:13:25;10.05;;;6.57;;
27365;SDS011;14837;57.148;-2.144;2022-11-23T04:15:51;8.93;;;5.22;;
27365;SDS011;14837;57.148;-2.144;2022-11-23T04:18:18;11.57;;;5.97;;
27365;SDS011;14837;57.148;-2.144;2022-11-23T04:20:44;9.43;;;4.93;;
27365;SDS011;14837;57.148;-2.144;2022-11-23T04:23:11;11.23;;;6.60;;
27365;SDS011;14837;57.148;-2.144;2022-11-23T04:25:38;7.47;;;5.47;;
27365;SDS011;14837;57.148;-2.144;2022-11-23T04:28:05;10.15;;;6.45;;
27365;SDS011;14837;57.148;-2.144;2022-11-23T04:30:32;9.15;;;5.57;;
27365;SDS011;14837;57.148;-2.144;2022-11-23T04:32:58;7.03;;;4.93;;
27365;SDS011;14837;57.148;-2.144;2022-11-23T04:35:25;10.82;;;5.43;;
27365;SDS011;14837;57.148;-2.144;2022-11-23T04:37:51;8.60;;;4.82;;
27365;SDS011;14837;57.148;-2.144;2022-11-23T04:40:18;8.48;;;4.70;;
27365;SDS011;14837;57.148;-2.144;2022-11-23T04:42:44;9.63;;;4.93;;
27365;SDS011;14837;57.148;-2.144;2022-11-23T04:45:11;16.10;;;5.88;;
27365;SDS011;14837;57.148;-2.144;2022-11-23T04:47:37;9.63;;;5.10;;
27365;SDS011;14837;57.148;-2.144;2022-11-23T04:50:04;5.55;;;4.15;;
27365;SDS011;14837;57.148;-2.144;2022-11-23T04:52:31;8.77;;;4.82;;
27365;SDS011;14837;57.148;-2.144;2022-11-23T04:54:57;9.60;;;5.35;;
27365;SDS011;14837;57.148;-2.144;2022-11-23T04:57:24;8.20;;;4.38;;
27365;SDS011;14837;57.148;-2.144;2022-11-23T04:59:50;11.63;;;4.65;;
27365;SDS011;14837;57.148;-2.144;2022-11-23T05:02:17;12.45;;;5.13;;
27365;SDS011;14837;57.148;-2.144;2022-11-23T05:04:43;9.88;;;4.43;;
27365;SDS011;14837;57.148;-2.144;2022-11-23T05:07:10;17.58;;;4.93;;
27365;SDS011;14837;57.148;-2.144;2022-11-23T05:09:36;8.85;;;4.88;;
27365;SDS011;14837;57.148;-2.144;2022-11-23T05:12:03;6.93;;;4.97;;
27365;SDS011;14837;57.148;-2.144;2022-11-23T05:14:30;15.60;;;6.22;;
27365;SDS011;14837;57.148;-2.144;2022-11-23T05:16:56;24.25;;;7.32;;
27365;SDS011;14837;57.148;-2.144;2022-11-23T05:19:23;19.40;;;7.20;;
27365;SDS011;14837;57.148;-2.144;2022-11-23T05:21:49;24.30;;;7.78;;
27365;SDS011;14837;57.148;-2.144;2022-11-23T05:24:16;11.15;;;5.18;;
27365;SDS011;14837;57.148;-2.144;2022-11-23T05:26:42;13.88;;;5.57;;
27365;SDS011;14837;57.148;-2.144;2022-11-23T05:29:09;14.02;;;4.55;;
27365;SDS011;14837;57.148;-2.144;2022-11-23T05:31:35;15.25;;;4.97;;
27365;SDS011;14837;57.148;-2.144;2022-11-23T05:34:02;11.45;;;5.38;;
27365;SDS011;14837;57.148;-2.144;2022-11-23T05:36:29;17.25;;;5.60;;
27365;SDS011;14837;57.148;-2.144;2022-11-23T05:38:56;7.05;;;2.95;;
27365;SDS011;14837;57.148;-2.144;2022-11-23T05:41:23;17.58;;;4.97;;
27365;SDS011;14837;57.148;-2.144;2022-11-23T05:43:49;19.50;;;4.63;;
27365;SDS011;14837;57.148;-2.144;2022-11-23T05:46:16;9.43;;;4.07;;
27365;SDS011;14837;57.148;-2.144;2022-11-23T05:48:42;7.03;;;4.63;;
27365;SDS011;14837;57.148;-2.144;2022-11-23T05:51:09;12.93;;;4.22;;
27365;SDS011;14837;57.148;-2.144;2022-11-23T05:53:36;7.53;;;3.47;;
27365;SDS011;14837;57.148;-2.144;2022-11-23T05:56:02;9.98;;;3.47;;
27365;SDS011;14837;57.148;-2.144;2022-11-23T05:58:29;7.68;;;3.45;;
27365;SDS011;14837;57.148;-2.144;2022-11-23T06:00:56;9.77;;;3.38;;
27365;SDS011;14837;57.148;-2.144;2022-11-23T06:03:23;7.38;;;2.28;;
27365;SDS011;14837;57.148;-2.144;2022-11-23T06:05:49;4.88;;;2.53;;
27365;SDS011;14837;57.148;-2.144;2022-11-23T06:08:15;4.00;;;2.15;;
27365;SDS011;14837;57.148;-2.144;2022-11-23T06:10:42;5.35;;;3.25;;
27365;SDS011;14837;57.148;-2.144;2022-11-23T06:13:08;6.10;;;2.15;;
27365;SDS011;14837;57.148;-2.144;2022-11-23T06:15:35;3.00;;;1.38;;
27365;SDS011;14837;57.148;-2.144;2022-11-23T06:18:01;5.22;;;2.67;;
27365;SDS011;14837;57.148;-2.144;2022-11-23T06:20:28;8.48;;;2.28;;
27365;SDS011;14837;57.148;-2.144;2022-11-23T06:22:55;4.70;;;1.40;;
27365;SDS011;14837;57.148;-2.144;2022-11-23T06:25:21;2.92;;;1.50;;
27365;SDS011;14837;57.148;-2.144;2022-11-23T06:27:54;8.50;;;1.90;;
27365;SDS011;14837;57.148;-2.144;2022-11-23T06:30:21;3.40;;;1.23;;
27365;SDS011;14837;57.148;-2.144;2022-11-23T06:32:48;6.07;;;2.00;;
27365;SDS011;14837;57.148;-2.144;2022-11-23T06:35:14;2.70;;;1.80;;
27365;SDS011;14837;57.148;-2.144;2022-11-23T06:37:42;3.05;;;1.23;;
27365;SDS011;14837;57.148;-2.144;2022-11-23T06:40:09;4.78;;;1.10;;
27365;SDS011;14837;57.148;-2.144;2022-11-23T06:42:36;7.45;;;1.35;;
27365;SDS011;14837;57.148;-2.144;2022-11-23T06:45:05;4.38;;;1.55;;
27365;SDS011;14837;57.148;-2.144;2022-11-23T06:47:32;6.68;;;1.40;;
27365;SDS011;14837;57.148;-2.144;2022-11-23T06:49:58;6.07;;;1.08;;
27365;SDS011;14837;57.148;-2.144;2022-11-23T06:52:25;1.83;;;1.52;;
27365;SDS011;14837;57.148;-2.144;2022-11-23T06:54:51;5.70;;;1.58;;
27365;SDS011;14837;57.148;-2.144;2022-11-23T06:57:18;1.98;;;1.10;;
27365;SDS011;14837;57.148;-2.144;2022-11-23T06:59:44;5.97;;;1.33;;
27365;SDS011;14837;57.148;-2.144;2022-11-23T07:02:11;5.72;;;1.40;;
27365;SDS011;14837;57.148;-2.144;2022-11-23T07:04:38;3.25;;;1.67;;
27365;SDS011;14837;57.148;-2.144;2022-11-23T07:07:06;2.30;;;1.10;;
27365;SDS011;14837;57.148;-2.144;2022-11-23T07:09:32;5.03;;;1.92;;
27365;SDS011;14837;57.148;-2.144;2022-11-23T07:11:59;2.45;;;1.17;;
27365;SDS011;14837;57.148;-2.144;2022-11-23T07:14:26;5.20;;;1.80;;
27365;SDS011;14837;57.148;-2.144;2022-11-23T07:16:52;4.38;;;1.33;;
27365;SDS011;14837;57.148;-2.144;2022-11-23T07:19:19;3.65;;;1.27;;
27365;SDS011;14837;57.148;-2.144;2022-11-23T07:21:45;8.23;;;1.33;;
27365;SDS011;14837;57.148;-2.144;2022-11-23T07:24:12;3.85;;;1.35;;
27365;SDS011;14837;57.148;-2.144;2022-11-23T07:26:39;7.57;;;1.50;;
27365;SDS011;14837;57.148;-2.144;2022-11-23T07:29:05;3.47;;;1.40;;
27365;SDS011;14837;57.148;-2.144;2022-11-23T07:31:32;8.25;;;1.95;;
27365;SDS011;14837;57.148;-2.144;2022-11-23T07:33:58;5.13;;;1.38;;
27365;SDS011;14837;57.148;-2.144;2022-11-23T07:36:25;8.07;;;1.70;;
27365;SDS011;14837;57.148;-2.144;2022-11-23T07:38:51;6.90;;;1.85;;
27365;SDS011;14837;57.148;-2.144;2022-11-23T07:41:18;5.07;;;1.65;;
27365;SDS011;14837;57.148;-2.144;2022-11-23T07:43:44;6.70;;;2.03;;
27365;SDS011;14837;57.148;-2.144;2022-11-23T07:46:11;4.50;;;1.30;;
27365;SDS011;14837;57.148;-2.144;2022-11-23T07:48:37;5.45;;;2.20;;
27365;SDS011;14837;57.148;-2.144;2022-11-23T07:51:04;5.40;;;2.30;;
27365;SDS011;14837;57.148;-2.144;2022-11-23T07:53:30;5.05;;;1.75;;
27365;SDS011;14837;57.148;-2.144;2022-11-23T07:55:57;9.32;;;1.83;;
27365;SDS011;14837;57.148;-2.144;2022-11-23T07:58:26;13.25;;;2.20;;
27365;SDS011;14837;57.148;-2.144;2022-11-23T08:00:53;8.52;;;2.50;;
27365;SDS011;14837;57.148;-2.144;2022-11-23T08:03:19;4.82;;;1.85;;
27365;SDS011;14837;57.148;-2.144;2022-11-23T08:05:54;12.52;;;2.08;;
27365;SDS011;14837;57.148;-2.144;2022-11-23T08:08:22;5.63;;;1.95;;
27365;SDS011;14837;57.148;-2.144;2022-11-23T08:10:49;3.60;;;1.65;;
27365;SDS011;14837;57.148;-2.144;2022-11-23T08:13:19;6.88;;;1.73;;
27365;SDS011;14837;57.148;-2.144;2022-11-23T08:15:46;5.05;;;1.85;;
27365;SDS011;14837;57.148;-2.144;2022-11-23T08:18:19;12.30;;;1.88;;
27365;SDS011;14837;57.148;-2.144;2022-11-23T08:20:46;8.68;;;2.28;;
27365;SDS011;14837;57.148;-2.144;2022-11-23T08:23:12;3.72;;;1.90;;
27365;SDS011;14837;57.148;-2.144;2022-11-23T08:25:39;6.53;;;1.58;;
27365;SDS011;14837;57.148;-2.144;2022-11-23T08:28:05;5.60;;;1.38;;
27365;SDS011;14837;57.148;-2.144;2022-11-23T08:30:32;7.53;;;2.40;;
27365;SDS011;14837;57.148;-2.144;2022-11-23T08:33:03;9.25;;;1.75;;
27365;SDS011;14837;57.148;-2.144;2022-11-23T08:35:32;5.95;;;2.13;;
27365;SDS011;14837;57.148;-2.144;2022-11-23T08:37:58;5.97;;;1.63;;
27365;SDS011;14837;57.148;-2.144;2022-11-23T08:40:25;5.00;;;1.88;;
27365;SDS011;14837;57.148;-2.144;2022-11-23T08:42:51;7.07;;;2.13;;
27365;SDS011;14837;57.148;-2.144;2022-11-23T08:45:18;6.68;;;1.10;;
27365;SDS011;14837;57.148;-2.144;2022-11-23T08:47:44;9.63;;;1.90;;
27365;SDS011;14837;57.148;-2.144;2022-11-23T08:50:11;6.07;;;1.90;;
27365;SDS011;14837;57.148;-2.144;2022-11-23T08:52:37;4.30;;;1.45;;
27365;SDS011;14837;57.148;-2.144;2022-11-23T08:55:04;3.13;;;1.58;;
27365;SDS011;14837;57.148;-2.144;2022-11-23T08:57:30;6.35;;;1.83;;
27365;SDS011;14837;57.148;-2.144;2022-11-23T08:59:57;4.68;;;1.50;;
27365;SDS011;14837;57.148;-2.144;2022-11-23T09:02:23;4.78;;;1.65;;
27365;SDS011;14837;57.148;-2.144;2022-11-23T09:04:50;7.35;;;1.50;;
27365;SDS011;14837;57.148;-2.144;2022-11-23T09:07:16;6.25;;;1.73;;
27365;SDS011;14837;57.148;-2.144;2022-11-23T09:09:43;9.85;;;3.15;;
27365;SDS011;14837;57.148;-2.144;2022-11-23T09:12:09;6.45;;;2.35;;
27365;SDS011;14837;57.148;-2.144;2022-11-23T09:14:36;7.30;;;2.55;;
27365;SDS011;14837;57.148;-2.144;2022-11-23T09:17:02;5.32;;;1.60;;
27365;SDS011;14837;57.148;-2.144;2022-11-23T09:19:29;6.85;;;1.83;;
27365;SDS011;14837;57.148;-2.144;2022-11-23T09:21:55;7.90;;;3.45;;
27365;SDS011;14837;57.148;-2.144;2022-11-23T09:24:23;6.75;;;1.92;;
27365;SDS011;14837;57.148;-2.144;2022-11-23T09:26:51;7.13;;;1.73;;
27365;SDS011;14837;57.148;-2.144;2022-11-23T09:29:17;10.18;;;1.90;;
27365;SDS011;14837;57.148;-2.144;2022-11-23T09:31:43;5.40;;;1.77;;
27365;SDS011;14837;57.148;-2.144;2022-11-23T09:34:11;10.43;;;1.73;;
27365;SDS011;14837;57.148;-2.144;2022-11-23T09:36:38;7.15;;;1.55;;
27365;SDS011;14837;57.148;-2.144;2022-11-23T09:39:04;6.82;;;1.67;;
27365;SDS011;14837;57.148;-2.144;2022-11-23T09:49:32;7.55;;;1.48;;
27365;SDS011;14837;57.148;-2.144;2022-11-23T09:52:01;4.85;;;1.73;;
27365;SDS011;14837;57.148;-2.144;2022-11-23T09:54:32;5.05;;;1.42;;
27365;SDS011;14837;57.148;-2.144;2022-11-23T09:57:00;4.18;;;1.55;;
27365;SDS011;14837;57.148;-2.144;2022-11-23T10:02:00;7.60;;;2.13;;
27365;SDS011;14837;57.148;-2.144;2022-11-23T10:04:28;3.42;;;1.85;;
27365;SDS011;14837;57.148;-2.144;2022-11-23T10:07:22;9.32;;;1.92;;
27365;SDS011;14837;57.148;-2.144;2022-11-23T10:15:14;7.50;;;2.13;;
27365;SDS011;14837;57.148;-2.144;2022-11-23T10:23:10;6.53;;;2.35;;
27365;SDS011;14837;57.148;-2.144;2022-11-23T10:25:39;8.90;;;2.40;;
27365;SDS011;14837;57.148;-2.144;2022-11-23T10:28:11;13.40;;;2.58;;
27365;SDS011;14837;57.148;-2.144;2022-11-23T10:30:38;9.32;;;2.53;;
27365;SDS011;14837;57.148;-2.144;2022-11-23T10:33:52;6.28;;;1.50;;
27365;SDS011;14837;57.148;-2.144;2022-11-23T10:35:52;9.30;;;1.80;;
27365;SDS011;14837;57.148;-2.144;2022-11-23T10:38:19;7.90;;;2.55;;
27365;SDS011;14837;57.148;-2.144;2022-11-23T10:41:03;9.73;;;1.98;;
27365;SDS011;14837;57.148;-2.144;2022-11-23T10:43:31;7.63;;;1.70;;
27365;SDS011;14837;57.148;-2.144;2022-11-23T10:48:45;5.78;;;2.33;;
27365;SDS011;14837;57.148;-2.144;2022-11-23T10:51:15;9.98;;;2.20;;
27365;SDS011;14837;57.148;-2.144;2022-11-23T10:53:49;9.63;;;1.80;;
27365;SDS011;14837;57.148;-2.144;2022-11-23T10:56:16;8.52;;;2.67;;
27365;SDS011;14837;57.148;-2.144;2022-11-23T10:58:43;9.23;;;2.25;;
27365;SDS011;14837;57.148;-2.144;2022-11-23T11:01:14;7.70;;;2.85;;
27365;SDS011;14837;57.148;-2.144;2022-11-23T11:03:41;5.25;;;1.73;;
27365;SDS011;14837;57.148;-2.144;2022-11-23T11:06:08;11.30;;;2.28;;
27365;SDS011;14837;57.148;-2.144;2022-11-23T11:08:55;5.85;;;2.47;;
27365;SDS011;14837;57.148;-2.144;2022-11-23T11:11:34;6.13;;;1.88;;
27365;SDS011;14837;57.148;-2.144;2022-11-23T11:16:36;12.95;;;2.88;;
27365;SDS011;14837;57.148;-2.144;2022-11-23T11:19:25;10.82;;;2.42;;
27365;SDS011;14837;57.148;-2.144;2022-11-23T11:21:49;9.88;;;2.63;;
27365;SDS011;14837;57.148;-2.144;2022-11-23T11:24:26;9.23;;;2.22;;
27365;SDS011;14837;57.148;-2.144;2022-11-23T11:26:57;9.45;;;2.45;;
27365;SDS011;14837;57.148;-2.144;2022-11-23T11:29:33;8.80;;;2.95;;
27365;SDS011;14837;57.148;-2.144;2022-11-23T11:32:05;10.85;;;3.28;;
27365;SDS011;14837;57.148;-2.144;2022-11-23T11:34:47;9.82;;;2.60;;
27365;SDS011;14837;57.148;-2.144;2022-11-23T11:37:29;9.50;;;3.55;;
27365;SDS011;14837;57.148;-2.144;2022-11-23T11:42:43;12.00;;;3.15;;
27365;SDS011;14837;57.148;-2.144;2022-11-23T11:45:14;16.33;;;4.53;;
27365;SDS011;14837;57.148;-2.144;2022-11-23T11:47:52;9.45;;;3.47;;
27365;SDS011;14837;57.148;-2.144;2022-11-23T11:50:25;8.43;;;2.53;;
27365;SDS011;14837;57.148;-2.144;2022-11-23T11:52:59;18.70;;;3.10;;
27365;SDS011;14837;57.148;-2.144;2022-11-23T11:55:44;13.98;;;2.63;;
27365;SDS011;14837;57.148;-2.144;2022-11-23T11:58:13;10.77;;;3.20;;
27365;SDS011;14837;57.148;-2.144;2022-11-23T12:00:40;6.65;;;2.88;;
27365;SDS011;14837;57.148;-2.144;2022-11-23T12:03:18;14.73;;;3.22;;
27365;SDS011;14837;57.148;-2.144;2022-11-23T12:05:50;15.63;;;3.33;;
27365;SDS011;14837;57.148;-2.144;2022-11-23T12:08:23;14.48;;;4.53;;
27365;SDS011;14837;57.148;-2.144;2022-11-23T12:10:54;8.27;;;2.78;;
27365;SDS011;14837;57.148;-2.144;2022-11-23T12:13:24;12.23;;;3.17;;
27365;SDS011;14837;57.148;-2.144;2022-11-23T12:18:40;11.23;;;3.85;;
27365;SDS011;14837;57.148;-2.144;2022-11-23T12:23:48;18.02;;;4.43;;
27365;SDS011;14837;57.148;-2.144;2022-11-23T12:44:39;11.82;;;3.50;;
27365;SDS011;14837;57.148;-2.144;2022-11-23T12:49:37;15.07;;;3.15;;
27365;SDS011;14837;57.148;-2.144;2022-11-23T12:57:11;15.85;;;4.45;;
27365;SDS011;14837;57.148;-2.144;2022-11-23T12:59:47;10.68;;;4.03;;
27365;SDS011;14837;57.148;-2.144;2022-11-23T13:22:49;14.48;;;3.33;;
27365;SDS011;14837;57.148;-2.144;2022-11-23T13:40:22;15.88;;;4.57;;
27365;SDS011;14837;57.148;-2.144;2022-11-23T13:42:49;18.45;;;4.82;;
27365;SDS011;14837;57.148;-2.144;2022-11-23T13:48:05;15.77;;;5.35;;
27365;SDS011;14837;57.148;-2.144;2022-11-23T13:50:32;16.65;;;5.10;;
27365;SDS011;14837;57.148;-2.144;2022-11-23T13:52:59;14.10;;;4.78;;
27365;SDS011;14837;57.148;-2.144;2022-11-23T13:55:35;11.95;;;5.28;;
27365;SDS011;14837;57.148;-2.144;2022-11-23T14:00:51;11.57;;;4.13;;
27365;SDS011;14837;57.148;-2.144;2022-11-23T14:09:14;7.28;;;3.20;;
27365;SDS011;14837;57.148;-2.144;2022-11-23T14:11:55;11.43;;;3.25;;
27365;SDS011;14837;57.148;-2.144;2022-11-23T14:14:25;15.13;;;4.13;;
27365;SDS011;14837;57.148;-2.144;2022-11-23T14:19:34;19.08;;;3.85;;
27365;SDS011;14837;57.148;-2.144;2022-11-23T14:22:05;11.45;;;2.97;;
27365;SDS011;14837;57.148;-2.144;2022-11-23T14:24:42;10.63;;;3.25;;
27365;SDS011;14837;57.148;-2.144;2022-11-23T14:27:19;12.45;;;3.47;;
27365;SDS011;14837;57.148;-2.144;2022-11-23T14:30:15;10.63;;;2.72;;
27365;SDS011;14837;57.148;-2.144;2022-11-23T14:42:44;8.82;;;3.30;;
27365;SDS011;14837;57.148;-2.144;2022-11-23T14:45:15;9.65;;;2.80;;
27365;SDS011;14837;57.148;-2.144;2022-11-23T14:47:42;7.00;;;2.58;;
27365;SDS011;14837;57.148;-2.144;2022-11-23T14:52:47;8.63;;;2.50;;
27365;SDS011;14837;57.148;-2.144;2022-11-23T14:55:16;4.88;;;2.50;;
27365;SDS011;14837;57.148;-2.144;2022-11-23T14:57:44;16.95;;;3.50;;
27365;SDS011;14837;57.148;-2.144;2022-11-23T15:00:29;9.15;;;3.10;;
27365;SDS011;14837;57.148;-2.144;2022-11-23T15:05:30;9.95;;;2.88;;
27365;SDS011;14837;57.148;-2.144;2022-11-23T15:08:03;8.68;;;2.80;;
27365;SDS011;14837;57.148;-2.144;2022-11-23T15:13:23;6.60;;;2.92;;
27365;SDS011;14837;57.148;-2.144;2022-11-23T15:15:51;9.38;;;2.80;;
27365;SDS011;14837;57.148;-2.144;2022-11-23T15:18:27;5.72;;;2.20;;
27365;SDS011;14837;57.148;-2.144;2022-11-23T15:20:55;6.28;;;2.53;;
27365;SDS011;14837;57.148;-2.144;2022-11-23T15:23:23;9.13;;;3.00;;
27365;SDS011;14837;57.148;-2.144;2022-11-23T15:25:50;7.40;;;3.30;;
27365;SDS011;14837;57.148;-2.144;2022-11-23T15:28:18;10.70;;;3.28;;
27365;SDS011;14837;57.148;-2.144;2022-11-23T15:30:48;9.40;;;2.72;;
27365;SDS011;14837;57.148;-2.144;2022-11-23T15:33:23;7.35;;;4.78;;
27365;SDS011;14837;57.148;-2.144;2022-11-23T15:35:49;12.68;;;3.60;;
27365;SDS011;14837;57.148;-2.144;2022-11-23T15:38:17;6.78;;;2.88;;
27365;SDS011;14837;57.148;-2.144;2022-11-23T15:40:49;10.35;;;3.55;;
27365;SDS011;14837;57.148;-2.144;2022-11-23T15:43:16;15.45;;;5.22;;
27365;SDS011;14837;57.148;-2.144;2022-11-23T15:50:53;17.70;;;3.08;;
27365;SDS011;14837;57.148;-2.144;2022-11-23T15:53:20;8.18;;;3.42;;
27365;SDS011;14837;57.148;-2.144;2022-11-23T15:55:47;9.48;;;2.97;;
27365;SDS011;14837;57.148;-2.144;2022-11-23T15:58:15;8.30;;;3.08;;
27365;SDS011;14837;57.148;-2.144;2022-11-23T16:00:49;9.65;;;2.60;;
27365;SDS011;14837;57.148;-2.144;2022-11-23T16:04:00;8.57;;;2.03;;
27365;SDS011;14837;57.148;-2.144;2022-11-23T16:06:53;6.82;;;2.45;;
27365;SDS011;14837;57.148;-2.144;2022-11-23T16:08:54;4.60;;;1.88;;
27365;SDS011;14837;57.148;-2.144;2022-11-23T16:11:28;6.40;;;2.25;;
27365;SDS011;14837;57.148;-2.144;2022-11-23T16:16:41;6.75;;;2.58;;
27365;SDS011;14837;57.148;-2.144;2022-11-23T16:21:46;8.52;;;2.80;;
27365;SDS011;14837;57.148;-2.144;2022-11-23T16:24:17;8.90;;;2.28;;
27365;SDS011;14837;57.148;-2.144;2022-11-23T16:26:45;4.38;;;2.13;;
27365;SDS011;14837;57.148;-2.144;2022-11-23T16:29:19;4.35;;;2.60;;
27365;SDS011;14837;57.148;-2.144;2022-11-23T16:31:53;7.05;;;3.00;;
27365;SDS011;14837;57.148;-2.144;2022-11-23T16:34:20;4.45;;;1.95;;
27365;SDS011;14837;57.148;-2.144;2022-11-23T16:36:47;4.22;;;1.75;;
27365;SDS011;14837;57.148;-2.144;2022-11-23T16:39:14;3.47;;;1.90;;
27365;SDS011;14837;57.148;-2.144;2022-11-23T16:41:40;6.10;;;2.00;;
27365;SDS011;14837;57.148;-2.144;2022-11-23T16:44:07;5.18;;;1.70;;
27365;SDS011;14837;57.148;-2.144;2022-11-23T16:46:33;2.78;;;1.60;;
27365;SDS011;14837;57.148;-2.144;2022-11-23T16:49:16;11.57;;;2.92;;
27365;SDS011;14837;57.148;-2.144;2022-11-23T16:51:44;11.13;;;4.85;;
27365;SDS011;14837;57.148;-2.144;2022-11-23T16:54:10;8.85;;;5.07;;
27365;SDS011;14837;57.148;-2.144;2022-11-23T16:56:39;5.43;;;2.88;;
27365;SDS011;14837;57.148;-2.144;2022-11-23T16:59:08;5.50;;;2.05;;
27365;SDS011;14837;57.148;-2.144;2022-11-23T17:01:39;6.13;;;2.20;;